Time;durP1;ratioP1;P1;durP2;ratioP2;P2;SDS_P1;SDS_P2;PMS_P1;PMS_P2;Temp;Humidity;BMP_temperature;BMP_pressure;BME280_temperature;BME280_humidity;BME280_pressure;Samples;Min_cycle;Max_cycle;Signal;HPM_P1;HPM_P2
2022/12/16 00:00:14;;;;;;;9.90;3.07;;;;;;;;;;5095554;28;20016;-71
2022/12/16 00:02:40;;;;;;;6.37;2.37;;;;;;;;;;5094352;28;20020;-73
2022/12/16 00:05:05;;;;;;;5.37;2.37;;;;;;;;;;5095498;28;20085;-75
2022/12/16 00:07:31;;;;;;;5.60;2.40;;;;;;;;;;5094716;28;20027;-73
2022/12/16 00:09:56;;;;;;;6.63;2.90;;;;;;;;;;5095581;28;20031;-73
2022/12/16 00:12:22;;;;;;;5.83;2.50;;;;;;;;;;5094878;28;20016;-73
2022/12/16 00:14:47;;;;;;;8.30;2.47;;;;;;;;;;5094643;28;20038;-73
2022/12/16 00:17:12;;;;;;;7.00;3.60;;;;;;;;;;5094735;28;20477;-72
2022/12/16 00:19:38;;;;;;;7.30;3.03;;;;;;;;;;5093534;28;20023;-73
2022/12/16 00:22:03;;;;;;;8.43;2.70;;;;;;;;;;5094392;28;20016;-74
2022/12/16 00:24:30;;;;;;;6.50;2.73;;;;;;;;;;5093728;28;20024;-73
2022/12/16 00:26:56;;;;;;;8.07;3.97;;;;;;;;;;5095460;28;20092;-72
2022/12/16 00:29:21;;;;;;;8.13;3.60;;;;;;;;;;5094984;28;20043;-74
2022/12/16 00:31:47;;;;;;;8.20;3.90;;;;;;;;;;5095203;28;20027;-74
2022/12/16 00:34:13;;;;;;;7.83;3.90;;;;;;;;;;5093297;28;20122;-74
2022/12/16 00:36:38;;;;;;;10.77;4.50;;;;;;;;;;5092923;28;20384;-74
2022/12/16 00:39:04;;;;;;;9.23;4.87;;;;;;;;;;5093211;28;20032;-74
2022/12/16 00:41:29;;;;;;;10.50;4.57;;;;;;;;;;5092808;28;20012;-74
2022/12/16 00:43:54;;;;;;;11.17;4.83;;;;;;;;;;5093029;28;20385;-72
2022/12/16 00:46:20;;;;;;;10.30;4.23;;;;;;;;;;5093354;28;20477;-73
2022/12/16 00:48:45;;;;;;;8.77;5.40;;;;;;;;;;5093251;28;20012;-73
2022/12/16 00:51:10;;;;;;;8.97;4.90;;;;;;;;;;5094414;28;20024;-74
2022/12/16 00:53:37;;;;;;;8.90;4.50;;;;;;;;;;5092842;28;20042;-74
2022/12/16 00:56:07;;;;;;;8.00;3.97;;;;;;;;;;5092870;28;20022;-73
2022/12/16 00:58:33;;;;;;;8.93;4.10;;;;;;;;;;5092341;28;20109;-73
2022/12/16 01:00:59;;;;;;;7.43;3.53;;;;;;;;;;5093786;28;20016;-74
2022/12/16 01:03:24;;;;;;;8.80;4.03;;;;;;;;;;5092300;28;20020;-72
2022/12/16 01:05:49;;;;;;;7.33;3.67;;;;;;;;;;5093823;28;20016;-72
2022/12/16 01:08:16;;;;;;;10.13;4.00;;;;;;;;;;5092648;28;20024;-73
2022/12/16 01:10:41;;;;;;;6.30;3.90;;;;;;;;;;5094331;28;20045;-72
2022/12/16 01:13:06;;;;;;;8.70;4.37;;;;;;;;;;5092934;28;20041;-72
2022/12/16 01:15:32;;;;;;;7.60;3.73;;;;;;;;;;5093608;28;20461;-73
2022/12/16 01:17:57;;;;;;;6.27;3.47;;;;;;;;;;5092430;28;20024;-73
2022/12/16 01:20:23;;;;;;;6.47;3.33;;;;;;;;;;5093593;28;20016;-72
2022/12/16 01:22:48;;;;;;;6.57;3.40;;;;;;;;;;5093713;28;20464;-71
2022/12/16 01:25:14;;;;;;;5.87;3.03;;;;;;;;;;5093480;28;20024;-74
2022/12/16 01:27:39;;;;;;;5.77;2.77;;;;;;;;;;5092675;28;20030;-73
2022/12/16 01:30:05;;;;;;;6.23;3.03;;;;;;;;;;5094157;28;20020;-74
2022/12/16 01:32:30;;;;;;;4.60;2.67;;;;;;;;;;5092691;28;20055;-73
2022/12/16 01:34:57;;;;;;;7.10;3.40;;;;;;;;;;5094609;28;20043;-70
2022/12/16 01:37:23;;;;;;;7.37;3.97;;;;;;;;;;5096347;28;20069;-77
2022/12/16 01:39:49;;;;;;;4.83;3.23;;;;;;;;;;5098127;28;20043;-71
2022/12/16 01:42:17;;;;;;;6.33;3.27;;;;;;;;;;5095524;28;20019;-72
2022/12/16 01:44:43;;;;;;;4.40;2.50;;;;;;;;;;5092326;28;20069;-73
2022/12/16 01:47:13;;;;;;;4.77;2.83;;;;;;;;;;5093176;28;20480;-72
2022/12/16 01:50:05;;;;;;;5.37;2.77;;;;;;;;;;5093738;28;20161;-71
2022/12/16 01:52:32;;;;;;;6.07;2.43;;;;;;;;;;5092949;28;20544;-73
2022/12/16 01:55:01;;;;;;;8.37;3.60;;;;;;;;;;5098176;28;20038;-72
2022/12/16 01:57:32;;;;;;;6.50;3.60;;;;;;;;;;5097908;28;20373;-72
2022/12/16 01:59:59;;;;;;;6.33;3.33;;;;;;;;;;5093162;28;20473;-73
2022/12/16 02:02:25;;;;;;;5.17;2.93;;;;;;;;;;5094017;28;20016;-71
2022/12/16 02:07:35;;;;;;;8.20;3.60;;;;;;;;;;5096788;28;20123;-72
2022/12/16 02:10:00;;;;;;;8.20;3.87;;;;;;;;;;5096018;28;20048;-72
2022/12/16 02:12:29;;;;;;;8.03;3.70;;;;;;;;;;5093419;28;20031;-71
2022/12/16 02:15:00;;;;;;;7.20;3.80;;;;;;;;;;5093544;28;20048;-72
2022/12/16 02:17:40;;;;;;;7.10;4.03;;;;;;;;;;5093147;28;20415;-72
2022/12/16 02:20:06;;;;;;;7.87;4.23;;;;;;;;;;5092051;28;20550;-73
2022/12/16 02:22:47;;;;;;;10.10;4.67;;;;;;;;;;5091431;28;20024;-73
2022/12/16 02:25:39;;;;;;;7.73;3.93;;;;;;;;;;5091669;28;20464;-70
2022/12/16 02:28:10;;;;;;;9.63;5.27;;;;;;;;;;5091780;28;20031;-73
2022/12/16 02:30:39;;;;;;;8.83;4.27;;;;;;;;;;5091777;28;20020;-73
2022/12/16 02:33:13;;;;;;;8.67;4.50;;;;;;;;;;5091375;28;20024;-71
2022/12/16 02:35:45;;;;;;;8.90;4.85;;;;;;;;;;5091621;28;20016;-72
2022/12/16 02:38:19;;;;;;;8.17;4.53;;;;;;;;;;5091725;28;20028;-72
2022/12/16 02:40:50;;;;;;;7.78;4.20;;;;;;;;;;5091690;28;20024;-74
2022/12/16 02:43:22;;;;;;;9.40;5.13;;;;;;;;;;5091947;28;20506;-72
2022/12/16 02:45:49;;;;;;;10.60;5.73;;;;;;;;;;5091672;28;20376;-72
2022/12/16 02:48:14;;;;;;;8.90;4.53;;;;;;;;;;5091409;28;20020;-72
2022/12/16 02:50:43;;;;;;;7.97;4.13;;;;;;;;;;5092243;28;20028;-73
2022/12/16 02:53:08;;;;;;;10.13;5.47;;;;;;;;;;5093641;28;20050;-73
2022/12/16 02:56:03;;;;;;;12.47;5.67;;;;;;;;;;5092137;28;20603;-75
2022/12/16 02:58:29;;;;;;;10.70;5.18;;;;;;;;;;5074299;28;20055;-72
2022/12/16 03:01:06;;;;;;;10.73;5.00;;;;;;;;;;5092543;28;20020;-72
2022/12/16 03:03:38;;;;;;;11.60;5.57;;;;;;;;;;5092661;28;20020;-73
2022/12/16 03:06:04;;;;;;;12.60;4.53;;;;;;;;;;5097756;28;20024;-73
2022/12/16 03:08:35;;;;;;;13.40;5.47;;;;;;;;;;5102917;28;20378;-73
2022/12/16 03:11:02;;;;;;;8.63;4.37;;;;;;;;;;5100646;28;20024;-75
2022/12/16 03:13:30;;;;;;;13.43;5.33;;;;;;;;;;5095815;28;20046;-72
2022/12/16 03:15:57;;;;;;;11.77;5.00;;;;;;;;;;5095439;28;20034;-72
2022/12/16 03:18:22;;;;;;;11.73;5.73;;;;;;;;;;5096699;28;20055;-72
2022/12/16 03:20:51;;;;;;;10.30;5.03;;;;;;;;;;5097024;28;20491;-70
2022/12/16 03:23:18;;;;;;;10.73;4.53;;;;;;;;;;5095544;28;20141;-70
2022/12/16 03:25:46;;;;;;;10.43;5.73;;;;;;;;;;5097551;28;20027;-71
2022/12/16 03:28:31;;;;;;;13.90;5.40;;;;;;;;;;5095854;28;20125;-74
2022/12/16 03:31:03;;;;;;;11.68;6.05;;;;;;;;;;5095848;28;20060;-70
2022/12/16 03:33:32;;;;;;;10.67;4.90;;;;;;;;;;5097652;28;20119;-73
2022/12/16 03:36:05;;;;;;;9.03;4.67;;;;;;;;;;5095094;28;20368;-72
2022/12/16 03:38:32;;;;;;;12.20;5.13;;;;;;;;;;5096725;28;20039;-72
2022/12/16 03:40:58;;;;;;;10.23;4.77;;;;;;;;;;5096052;28;20020;-72
2022/12/16 03:43:24;;;;;;;6.87;3.87;;;;;;;;;;5097861;28;20477;-73
2022/12/16 03:45:52;;;;;;;8.93;4.33;;;;;;;;;;5096135;28;20027;-74
2022/12/16 03:48:21;;;;;;;7.93;3.53;;;;;;;;;;5097444;28;20021;-73
2022/12/16 03:50:46;;;;;;;8.67;4.03;;;;;;;;;;5094795;28;20020;-73
2022/12/16 03:53:12;;;;;;;7.07;3.63;;;;;;;;;;5096285;28;20495;-72
2022/12/16 03:55:37;;;;;;;10.93;3.97;;;;;;;;;;5096566;28;20016;-72
2022/12/16 03:58:02;;;;;;;8.07;3.50;;;;;;;;;;5098074;28;20077;-73
2022/12/16 04:00:28;;;;;;;10.43;4.13;;;;;;;;;;5098822;28;20024;-73
2022/12/16 04:02:55;;;;;;;8.37;4.50;;;;;;;;;;5094096;28;20016;-72
2022/12/16 04:05:20;;;;;;;7.37;3.70;;;;;;;;;;5095264;28;20012;-73
2022/12/16 04:07:45;;;;;;;8.17;4.10;;;;;;;;;;5095142;28;20020;-73
2022/12/16 04:10:11;;;;;;;7.93;4.50;;;;;;;;;;5096216;28;20513;-73
2022/12/16 04:26:20;;;;;;;11.02;4.82;;;;;;;;;;5097889;28;20030;-72
2022/12/16 04:28:46;;;;;;;9.33;5.07;;;;;;;;;;5093940;28;20115;-72
2022/12/16 04:31:12;;;;;;;15.00;5.20;;;;;;;;;;5094528;28;20045;-73
